sensor_id;sensor_type;location;lat;lon;timestamp;P1;durP1;ratioP1;P2;durP2;ratioP2
16177;SDS011;8195;51.220;9.746;2024-02-21T00:03:09;9.90;;;6.07;;
16177;SDS011;8195;51.220;9.746;2024-02-21T00:07:30;9.97;;;6.13;;
16177;SDS011;8195;51.220;9.746;2024-02-21T00:11:50;9.37;;;6.40;;
16177;SDS011;8195;51.220;9.746;2024-02-21T00:16:10;8.57;;;6.13;;
16177;SDS011;8195;51.220;9.746;2024-02-21T00:20:32;11.10;;;6.63;;
16177;SDS011;8195;51.220;9.746;2024-02-21T00:24:52;9.43;;;7.00;;
16177;SDS011;8195;51.220;9.746;2024-02-21T00:29:12;10.20;;;6.43;;
16177;SDS011;8195;51.220;9.746;2024-02-21T00:33:33;11.50;;;6.63;;
16177;SDS011;8195;51.220;9.746;2024-02-21T00:37:53;10.90;;;8.17;;
16177;SDS011;8195;51.220;9.746;2024-02-21T00:42:13;11.63;;;7.27;;
16177;SDS011;8195;51.220;9.746;2024-02-21T00:46:34;10.93;;;6.80;;
16177;SDS011;8195;51.220;9.746;2024-02-21T00:50:54;13.63;;;7.80;;
16177;SDS011;8195;51.220;9.746;2024-02-21T00:55:14;12.23;;;7.80;;
16177;SDS011;8195;51.220;9.746;2024-02-21T00:59:35;12.67;;;7.63;;
16177;SDS011;8195;51.220;9.746;2024-02-21T01:03:55;13.20;;;7.93;;
16177;SDS011;8195;51.220;9.746;2024-02-21T01:08:15;15.47;;;8.53;;
16177;SDS011;8195;51.220;9.746;2024-02-21T01:12:36;13.17;;;8.40;;
16177;SDS011;8195;51.220;9.746;2024-02-21T01:16:59;15.77;;;8.47;;
16177;SDS011;8195;51.220;9.746;2024-02-21T01:21:19;11.23;;;7.57;;
16177;SDS011;8195;51.220;9.746;2024-02-21T01:25:40;13.33;;;8.50;;
16177;SDS011;8195;51.220;9.746;2024-02-21T01:30:00;14.53;;;7.93;;
16177;SDS011;8195;51.220;9.746;2024-02-21T01:34:20;15.10;;;7.90;;
16177;SDS011;8195;51.220;9.746;2024-02-21T01:38:41;13.33;;;8.63;;
16177;SDS011;8195;51.220;9.746;2024-02-21T01:43:01;16.07;;;8.63;;
16177;SDS011;8195;51.220;9.746;2024-02-21T01:47:21;14.93;;;8.30;;
16177;SDS011;8195;51.220;9.746;2024-02-21T01:51:42;14.57;;;8.57;;
16177;SDS011;8195;51.220;9.746;2024-02-21T01:56:02;16.97;;;9.70;;
16177;SDS011;8195;51.220;9.746;2024-02-21T02:00:23;13.93;;;8.80;;
16177;SDS011;8195;51.220;9.746;2024-02-21T02:04:43;16.03;;;8.80;;
16177;SDS011;8195;51.220;9.746;2024-02-21T02:09:04;14.10;;;9.07;;
16177;SDS011;8195;51.220;9.746;2024-02-21T02:13:25;18.27;;;9.30;;
16177;SDS011;8195;51.220;9.746;2024-02-21T02:17:45;14.27;;;9.60;;
16177;SDS011;8195;51.220;9.746;2024-02-21T02:22:09;14.73;;;8.87;;
16177;SDS011;8195;51.220;9.746;2024-02-21T02:26:34;18.60;;;10.37;;
16177;SDS011;8195;51.220;9.746;2024-02-21T02:30:55;18.27;;;10.20;;
16177;SDS011;8195;51.220;9.746;2024-02-21T02:35:15;15.27;;;9.63;;
16177;SDS011;8195;51.220;9.746;2024-02-21T02:39:35;17.13;;;10.43;;
16177;SDS011;8195;51.220;9.746;2024-02-21T02:43:55;21.23;;;10.40;;
16177;SDS011;8195;51.220;9.746;2024-02-21T02:48:16;12.27;;;9.30;;
16177;SDS011;8195;51.220;9.746;2024-02-21T02:52:36;15.83;;;9.57;;
16177;SDS011;8195;51.220;9.746;2024-02-21T02:56:56;17.27;;;9.90;;
16177;SDS011;8195;51.220;9.746;2024-02-21T03:01:17;16.63;;;9.70;;
16177;SDS011;8195;51.220;9.746;2024-02-21T03:05:37;19.13;;;9.70;;
16177;SDS011;8195;51.220;9.746;2024-02-21T03:09:57;16.97;;;10.77;;
16177;SDS011;8195;51.220;9.746;2024-02-21T03:14:18;13.87;;;9.70;;
16177;SDS011;8195;51.220;9.746;2024-02-21T03:18:39;20.13;;;11.10;;
16177;SDS011;8195;51.220;9.746;2024-02-21T03:22:59;16.97;;;10.90;;
16177;SDS011;8195;51.220;9.746;2024-02-21T03:27:20;15.80;;;10.73;;
16177;SDS011;8195;51.220;9.746;2024-02-21T03:31:40;19.27;;;10.90;;
16177;SDS011;8195;51.220;9.746;2024-02-21T03:36:01;20.40;;;10.77;;
16177;SDS011;8195;51.220;9.746;2024-02-21T03:40:21;22.80;;;12.60;;
16177;SDS011;8195;51.220;9.746;2024-02-21T03:44:41;16.83;;;11.10;;
16177;SDS011;8195;51.220;9.746;2024-02-21T03:49:02;17.10;;;10.97;;
16177;SDS011;8195;51.220;9.746;2024-02-21T03:53:22;18.17;;;11.17;;
16177;SDS011;8195;51.220;9.746;2024-02-21T03:57:42;18.67;;;11.63;;
16177;SDS011;8195;51.220;9.746;2024-02-21T04:02:03;19.50;;;11.83;;
16177;SDS011;8195;51.220;9.746;2024-02-21T04:06:23;17.43;;;12.47;;
16177;SDS011;8195;51.220;9.746;2024-02-21T04:10:43;17.93;;;11.70;;
16177;SDS011;8195;51.220;9.746;2024-02-21T04:15:04;16.87;;;11.93;;
16177;SDS011;8195;51.220;9.746;2024-02-21T04:19:24;20.33;;;11.63;;
16177;SDS011;8195;51.220;9.746;2024-02-21T04:23:45;21.13;;;11.80;;
16177;SDS011;8195;51.220;9.746;2024-02-21T04:28:05;20.50;;;12.07;;
16177;SDS011;8195;51.220;9.746;2024-02-21T04:32:26;20.63;;;11.30;;
16177;SDS011;8195;51.220;9.746;2024-02-21T04:36:46;18.47;;;13.37;;
16177;SDS011;8195;51.220;9.746;2024-02-21T04:41:06;17.87;;;11.77;;
16177;SDS011;8195;51.220;9.746;2024-02-21T04:45:27;20.70;;;12.43;;
16177;SDS011;8195;51.220;9.746;2024-02-21T04:49:47;20.03;;;13.17;;
16177;SDS011;8195;51.220;9.746;2024-02-21T04:54:07;17.13;;;12.20;;
16177;SDS011;8195;51.220;9.746;2024-02-21T04:58:28;20.27;;;12.77;;
16177;SDS011;8195;51.220;9.746;2024-02-21T05:02:48;15.67;;;12.23;;
16177;SDS011;8195;51.220;9.746;2024-02-21T05:07:08;16.47;;;12.07;;
16177;SDS011;8195;51.220;9.746;2024-02-21T05:11:28;14.77;;;10.97;;
16177;SDS011;8195;51.220;9.746;2024-02-21T05:15:49;17.50;;;11.83;;
16177;SDS011;8195;51.220;9.746;2024-02-21T05:20:09;16.50;;;12.03;;
16177;SDS011;8195;51.220;9.746;2024-02-21T05:24:30;18.17;;;11.73;;
16177;SDS011;8195;51.220;9.746;2024-02-21T05:28:50;19.10;;;11.97;;
16177;SDS011;8195;51.220;9.746;2024-02-21T05:33:11;22.53;;;12.30;;
16177;SDS011;8195;51.220;9.746;2024-02-21T05:37:31;14.00;;;11.33;;
16177;SDS011;8195;51.220;9.746;2024-02-21T05:41:51;18.90;;;11.60;;
16177;SDS011;8195;51.220;9.746;2024-02-21T05:46:12;17.30;;;11.17;;
16177;SDS011;8195;51.220;9.746;2024-02-21T05:50:32;17.07;;;11.53;;
16177;SDS011;8195;51.220;9.746;2024-02-21T05:54:52;18.83;;;11.47;;
16177;SDS011;8195;51.220;9.746;2024-02-21T05:59:13;17.23;;;10.40;;
16177;SDS011;8195;51.220;9.746;2024-02-21T06:03:34;16.23;;;11.20;;
16177;SDS011;8195;51.220;9.746;2024-02-21T06:07:54;14.43;;;10.27;;
16177;SDS011;8195;51.220;9.746;2024-02-21T06:12:14;13.93;;;10.33;;
16177;SDS011;8195;51.220;9.746;2024-02-21T06:16:35;17.90;;;10.80;;
16177;SDS011;8195;51.220;9.746;2024-02-21T06:20:55;16.63;;;11.37;;
16177;SDS011;8195;51.220;9.746;2024-02-21T06:25:15;17.83;;;11.67;;
16177;SDS011;8195;51.220;9.746;2024-02-21T06:29:36;16.23;;;10.60;;
16177;SDS011;8195;51.220;9.746;2024-02-21T06:33:56;16.13;;;10.73;;
16177;SDS011;8195;51.220;9.746;2024-02-21T06:38:16;15.57;;;10.13;;
16177;SDS011;8195;51.220;9.746;2024-02-21T06:42:37;14.10;;;10.30;;
16177;SDS011;8195;51.220;9.746;2024-02-21T06:46:57;16.80;;;10.20;;
16177;SDS011;8195;51.220;9.746;2024-02-21T06:51:17;17.37;;;10.17;;
16177;SDS011;8195;51.220;9.746;2024-02-21T06:55:38;13.73;;;9.53;;
16177;SDS011;8195;51.220;9.746;2024-02-21T06:59:58;17.10;;;9.80;;
16177;SDS011;8195;51.220;9.746;2024-02-21T07:04:19;24.07;;;10.60;;
16177;SDS011;8195;51.220;9.746;2024-02-21T07:08:39;18.00;;;9.77;;
16177;SDS011;8195;51.220;9.746;2024-02-21T07:12:59;14.67;;;9.83;;
16177;SDS011;8195;51.220;9.746;2024-02-21T07:17:19;15.60;;;9.63;;
16177;SDS011;8195;51.220;9.746;2024-02-21T07:21:40;16.57;;;9.93;;
16177;SDS011;8195;51.220;9.746;2024-02-21T07:26:00;14.17;;;9.27;;
16177;SDS011;8195;51.220;9.746;2024-02-21T07:30:20;12.63;;;9.47;;
16177;SDS011;8195;51.220;9.746;2024-02-21T07:34:41;13.47;;;8.97;;
16177;SDS011;8195;51.220;9.746;2024-02-21T07:39:01;13.37;;;9.27;;
16177;SDS011;8195;51.220;9.746;2024-02-21T07:43:21;11.90;;;8.70;;
16177;SDS011;8195;51.220;9.746;2024-02-21T07:47:42;15.50;;;8.87;;
16177;SDS011;8195;51.220;9.746;2024-02-21T07:52:02;12.67;;;9.00;;
16177;SDS011;8195;51.220;9.746;2024-02-21T07:56:22;12.10;;;9.03;;
16177;SDS011;8195;51.220;9.746;2024-02-21T08:00:43;13.70;;;9.03;;
16177;SDS011;8195;51.220;9.746;2024-02-21T08:05:03;17.53;;;9.47;;
16177;SDS011;8195;51.220;9.746;2024-02-21T08:09:24;10.40;;;8.37;;
16177;SDS011;8195;51.220;9.746;2024-02-21T08:13:44;14.43;;;7.80;;
16177;SDS011;8195;51.220;9.746;2024-02-21T08:18:05;14.90;;;9.40;;
16177;SDS011;8195;51.220;9.746;2024-02-21T08:22:25;10.77;;;8.03;;
16177;SDS011;8195;51.220;9.746;2024-02-21T08:26:45;8.70;;;7.80;;
16177;SDS011;8195;51.220;9.746;2024-02-21T08:31:06;12.90;;;8.07;;
16177;SDS011;8195;51.220;9.746;2024-02-21T08:35:26;10.17;;;8.00;;
16177;SDS011;8195;51.220;9.746;2024-02-21T08:39:47;13.17;;;8.37;;
16177;SDS011;8195;51.220;9.746;2024-02-21T08:44:07;13.03;;;8.03;;
16177;SDS011;8195;51.220;9.746;2024-02-21T08:48:27;10.10;;;7.00;;
16177;SDS011;8195;51.220;9.746;2024-02-21T08:52:49;9.63;;;7.33;;
16177;SDS011;8195;51.220;9.746;2024-02-21T08:57:09;9.80;;;7.23;;
16177;SDS011;8195;51.220;9.746;2024-02-21T09:01:29;8.23;;;6.77;;
16177;SDS011;8195;51.220;9.746;2024-02-21T09:05:50;9.10;;;6.60;;
16177;SDS011;8195;51.220;9.746;2024-02-21T09:10:10;10.63;;;6.50;;
16177;SDS011;8195;51.220;9.746;2024-02-21T09:14:34;8.83;;;6.10;;
16177;SDS011;8195;51.220;9.746;2024-02-21T09:18:57;9.43;;;6.20;;
16177;SDS011;8195;51.220;9.746;2024-02-21T09:23:17;8.53;;;7.00;;
16177;SDS011;8195;51.220;9.746;2024-02-21T09:27:38;9.03;;;5.80;;
16177;SDS011;8195;51.220;9.746;2024-02-21T09:31:59;9.73;;;6.20;;
16177;SDS011;8195;51.220;9.746;2024-02-21T09:36:19;9.13;;;6.33;;
16177;SDS011;8195;51.220;9.746;2024-02-21T09:40:40;8.33;;;6.00;;
16177;SDS011;8195;51.220;9.746;2024-02-21T09:45:00;7.73;;;5.00;;
16177;SDS011;8195;51.220;9.746;2024-02-21T09:49:25;9.70;;;5.87;;
16177;SDS011;8195;51.220;9.746;2024-02-21T09:53:50;5.50;;;4.67;;
16177;SDS011;8195;51.220;9.746;2024-02-21T09:58:11;6.50;;;5.13;;
16177;SDS011;8195;51.220;9.746;2024-02-21T10:02:31;6.63;;;5.03;;
16177;SDS011;8195;51.220;9.746;2024-02-21T10:06:53;7.60;;;4.97;;
16177;SDS011;8195;51.220;9.746;2024-02-21T10:11:21;8.23;;;4.70;;
16177;SDS011;8195;51.220;9.746;2024-02-21T10:15:42;6.63;;;5.37;;
16177;SDS011;8195;51.220;9.746;2024-02-21T10:20:09;7.47;;;5.60;;
16177;SDS011;8195;51.220;9.746;2024-02-21T10:24:30;5.70;;;5.07;;
16177;SDS011;8195;51.220;9.746;2024-02-21T10:28:52;10.97;;;5.40;;
16177;SDS011;8195;51.220;9.746;2024-02-21T10:33:15;6.20;;;4.93;;
16177;SDS011;8195;51.220;9.746;2024-02-21T10:37:35;7.77;;;5.03;;
16177;SDS011;8195;51.220;9.746;2024-02-21T10:41:56;7.20;;;4.67;;
16177;SDS011;8195;51.220;9.746;2024-02-21T10:46:20;8.30;;;5.10;;
16177;SDS011;8195;51.220;9.746;2024-02-21T10:50:53;7.93;;;5.57;;
16177;SDS011;8195;51.220;9.746;2024-02-21T10:55:24;7.60;;;5.37;;
16177;SDS011;8195;51.220;9.746;2024-02-21T10:59:51;7.00;;;5.90;;
16177;SDS011;8195;51.220;9.746;2024-02-21T11:04:13;9.57;;;6.57;;
16177;SDS011;8195;51.220;9.746;2024-02-21T11:08:34;10.60;;;7.00;;
16177;SDS011;8195;51.220;9.746;2024-02-21T11:17:27;8.93;;;7.07;;
16177;SDS011;8195;51.220;9.746;2024-02-21T11:21:47;11.60;;;6.70;;
16177;SDS011;8195;51.220;9.746;2024-02-21T11:26:08;11.90;;;7.60;;
16177;SDS011;8195;51.220;9.746;2024-02-21T11:30:29;8.90;;;6.83;;
16177;SDS011;8195;51.220;9.746;2024-02-21T11:39:17;9.13;;;6.67;;
16177;SDS011;8195;51.220;9.746;2024-02-21T11:43:41;8.77;;;7.10;;
16177;SDS011;8195;51.220;9.746;2024-02-21T11:48:03;9.73;;;6.37;;
16177;SDS011;8195;51.220;9.746;2024-02-21T11:52:25;9.07;;;6.67;;
16177;SDS011;8195;51.220;9.746;2024-02-21T11:56:46;8.80;;;6.30;;
16177;SDS011;8195;51.220;9.746;2024-02-21T12:01:06;9.80;;;6.73;;
16177;SDS011;8195;51.220;9.746;2024-02-21T12:05:27;9.23;;;6.50;;
16177;SDS011;8195;51.220;9.746;2024-02-21T12:09:47;7.37;;;6.20;;
16177;SDS011;8195;51.220;9.746;2024-02-21T12:14:08;8.47;;;6.73;;
16177;SDS011;8195;51.220;9.746;2024-02-21T12:18:28;9.60;;;6.30;;
16177;SDS011;8195;51.220;9.746;2024-02-21T12:22:49;8.10;;;6.00;;
16177;SDS011;8195;51.220;9.746;2024-02-21T12:27:09;9.87;;;6.60;;
16177;SDS011;8195;51.220;9.746;2024-02-21T12:31:30;8.20;;;7.20;;
16177;SDS011;8195;51.220;9.746;2024-02-21T12:35:50;6.83;;;5.30;;
16177;SDS011;8195;51.220;9.746;2024-02-21T12:40:10;8.83;;;6.73;;
16177;SDS011;8195;51.220;9.746;2024-02-21T12:44:31;7.13;;;5.87;;
16177;SDS011;8195;51.220;9.746;2024-02-21T12:48:51;6.87;;;5.93;;
16177;SDS011;8195;51.220;9.746;2024-02-21T12:53:11;9.50;;;6.70;;
16177;SDS011;8195;51.220;9.746;2024-02-21T12:57:32;9.20;;;6.53;;
16177;SDS011;8195;51.220;9.746;2024-02-21T13:01:52;7.70;;;6.53;;
16177;SDS011;8195;51.220;9.746;2024-02-21T13:06:12;7.40;;;6.30;;
16177;SDS011;8195;51.220;9.746;2024-02-21T13:10:33;9.00;;;7.10;;
16177;SDS011;8195;51.220;9.746;2024-02-21T13:14:53;7.93;;;6.73;;
16177;SDS011;8195;51.220;9.746;2024-02-21T13:19:13;10.90;;;7.50;;
16177;SDS011;8195;51.220;9.746;2024-02-21T13:23:35;8.50;;;6.80;;
16177;SDS011;8195;51.220;9.746;2024-02-21T13:27:55;9.83;;;6.97;;
16177;SDS011;8195;51.220;9.746;2024-02-21T13:32:16;10.57;;;6.73;;
16177;SDS011;8195;51.220;9.746;2024-02-21T13:36:36;9.37;;;7.50;;
16177;SDS011;8195;51.220;9.746;2024-02-21T13:40:56;9.17;;;7.67;;
16177;SDS011;8195;51.220;9.746;2024-02-21T13:45:17;10.90;;;7.53;;
16177;SDS011;8195;51.220;9.746;2024-02-21T13:49:37;8.57;;;7.33;;
16177;SDS011;8195;51.220;9.746;2024-02-21T13:53:57;8.87;;;7.90;;
16177;SDS011;8195;51.220;9.746;2024-02-21T13:58:18;9.60;;;7.40;;
16177;SDS011;8195;51.220;9.746;2024-02-21T14:02:38;10.57;;;8.13;;
16177;SDS011;8195;51.220;9.746;2024-02-21T14:06:58;9.10;;;7.47;;
16177;SDS011;8195;51.220;9.746;2024-02-21T14:11:19;13.73;;;8.10;;
16177;SDS011;8195;51.220;9.746;2024-02-21T14:15:41;10.80;;;8.20;;
16177;SDS011;8195;51.220;9.746;2024-02-21T14:20:03;8.37;;;7.53;;
16177;SDS011;8195;51.220;9.746;2024-02-21T14:24:24;9.50;;;7.80;;
16177;SDS011;8195;51.220;9.746;2024-02-21T14:28:45;10.57;;;8.20;;
16177;SDS011;8195;51.220;9.746;2024-02-21T14:33:05;9.60;;;7.47;;
16177;SDS011;8195;51.220;9.746;2024-02-21T14:37:25;9.17;;;8.00;;
16177;SDS011;8195;51.220;9.746;2024-02-21T14:41:46;11.00;;;7.77;;
16177;SDS011;8195;51.220;9.746;2024-02-21T14:46:06;8.57;;;7.53;;
16177;SDS011;8195;51.220;9.746;2024-02-21T14:50:26;10.27;;;8.87;;
16177;SDS011;8195;51.220;9.746;2024-02-21T14:54:47;10.17;;;7.47;;
16177;SDS011;8195;51.220;9.746;2024-02-21T14:59:07;9.63;;;7.83;;
16177;SDS011;8195;51.220;9.746;2024-02-21T15:03:28;10.97;;;8.07;;
16177;SDS011;8195;51.220;9.746;2024-02-21T15:07:49;7.80;;;7.00;;
16177;SDS011;8195;51.220;9.746;2024-02-21T15:12:10;13.17;;;7.43;;
16177;SDS011;8195;51.220;9.746;2024-02-21T15:16:30;7.93;;;7.13;;
16177;SDS011;8195;51.220;9.746;2024-02-21T15:20:50;11.23;;;7.53;;
16177;SDS011;8195;51.220;9.746;2024-02-21T15:25:11;9.23;;;7.37;;
16177;SDS011;8195;51.220;9.746;2024-02-21T15:29:31;10.00;;;6.83;;
16177;SDS011;8195;51.220;9.746;2024-02-21T15:33:52;9.77;;;6.93;;
16177;SDS011;8195;51.220;9.746;2024-02-21T15:38:12;9.10;;;6.73;;
16177;SDS011;8195;51.220;9.746;2024-02-21T15:42:33;9.23;;;6.43;;
16177;SDS011;8195;51.220;9.746;2024-02-21T15:46:53;7.60;;;6.27;;
16177;SDS011;8195;51.220;9.746;2024-02-21T15:51:13;7.37;;;5.70;;
16177;SDS011;8195;51.220;9.746;2024-02-21T15:55:34;7.93;;;6.27;;
16177;SDS011;8195;51.220;9.746;2024-02-21T15:59:54;8.77;;;6.53;;
16177;SDS011;8195;51.220;9.746;2024-02-21T16:04:14;8.53;;;6.13;;
16177;SDS011;8195;51.220;9.746;2024-02-21T16:08:35;7.43;;;5.90;;
16177;SDS011;8195;51.220;9.746;2024-02-21T16:12:55;7.10;;;5.83;;
16177;SDS011;8195;51.220;9.746;2024-02-21T16:17:15;9.07;;;5.50;;
16177;SDS011;8195;51.220;9.746;2024-02-21T16:21:36;6.50;;;5.80;;
16177;SDS011;8195;51.220;9.746;2024-02-21T16:25:56;6.93;;;6.23;;
16177;SDS011;8195;51.220;9.746;2024-02-21T16:30:17;6.93;;;5.70;;
16177;SDS011;8195;51.220;9.746;2024-02-21T16:34:37;6.47;;;5.87;;
16177;SDS011;8195;51.220;9.746;2024-02-21T16:38:59;7.23;;;6.10;;
16177;SDS011;8195;51.220;9.746;2024-02-21T16:43:19;10.43;;;6.33;;
16177;SDS011;8195;51.220;9.746;2024-02-21T16:47:39;8.33;;;6.33;;
16177;SDS011;8195;51.220;9.746;2024-02-21T16:52:00;7.00;;;5.83;;
16177;SDS011;8195;51.220;9.746;2024-02-21T16:56:20;6.90;;;6.23;;
16177;SDS011;8195;51.220;9.746;2024-02-21T17:00:40;9.00;;;5.93;;
16177;SDS011;8195;51.220;9.746;2024-02-21T17:05:01;10.40;;;6.30;;
16177;SDS011;8195;51.220;9.746;2024-02-21T17:09:21;6.73;;;6.13;;
16177;SDS011;8195;51.220;9.746;2024-02-21T17:13:42;6.73;;;6.07;;
16177;SDS011;8195;51.220;9.746;2024-02-21T17:18:02;7.60;;;6.10;;
16177;SDS011;8195;51.220;9.746;2024-02-21T17:22:22;6.50;;;5.60;;
16177;SDS011;8195;51.220;9.746;2024-02-21T17:26:43;7.63;;;5.70;;
16177;SDS011;8195;51.220;9.746;2024-02-21T17:31:04;6.70;;;5.43;;
16177;SDS011;8195;51.220;9.746;2024-02-21T17:35:24;8.13;;;6.07;;
16177;SDS011;8195;51.220;9.746;2024-02-21T17:39:44;6.57;;;5.90;;
16177;SDS011;8195;51.220;9.746;2024-02-21T17:44:05;8.77;;;5.43;;
16177;SDS011;8195;51.220;9.746;2024-02-21T17:48:25;7.90;;;5.27;;
16177;SDS011;8195;51.220;9.746;2024-02-21T17:52:45;7.23;;;4.80;;
16177;SDS011;8195;51.220;9.746;2024-02-21T17:57:06;8.07;;;5.50;;
16177;SDS011;8195;51.220;9.746;2024-02-21T18:01:26;7.20;;;4.97;;
16177;SDS011;8195;51.220;9.746;2024-02-21T18:05:46;8.57;;;5.23;;
16177;SDS011;8195;51.220;9.746;2024-02-21T18:10:07;5.33;;;4.80;;
16177;SDS011;8195;51.220;9.746;2024-02-21T18:14:27;6.83;;;4.67;;
16177;SDS011;8195;51.220;9.746;2024-02-21T18:18:48;5.80;;;4.50;;
16177;SDS011;8195;51.220;9.746;2024-02-21T18:23:08;7.90;;;4.93;;
16177;SDS011;8195;51.220;9.746;2024-02-21T18:27:28;7.27;;;4.63;;
16177;SDS011;8195;51.220;9.746;2024-02-21T18:31:49;9.27;;;5.50;;
16177;SDS011;8195;51.220;9.746;2024-02-21T18:36:09;5.83;;;4.47;;
16177;SDS011;8195;51.220;9.746;2024-02-21T18:40:29;6.40;;;3.67;;
16177;SDS011;8195;51.220;9.746;2024-02-21T18:44:50;4.57;;;3.97;;
16177;SDS011;8195;51.220;9.746;2024-02-21T18:49:10;6.57;;;4.13;;
16177;SDS011;8195;51.220;9.746;2024-02-21T18:53:30;5.93;;;4.13;;
16177;SDS011;8195;51.220;9.746;2024-02-21T18:57:51;6.00;;;3.77;;
16177;SDS011;8195;51.220;9.746;2024-02-21T19:02:11;6.80;;;3.97;;
16177;SDS011;8195;51.220;9.746;2024-02-21T19:06:31;3.80;;;3.33;;
16177;SDS011;8195;51.220;9.746;2024-02-21T19:10:52;4.90;;;3.80;;
16177;SDS011;8195;51.220;9.746;2024-02-21T19:15:12;6.33;;;3.40;;
16177;SDS011;8195;51.220;9.746;2024-02-21T19:19:32;6.67;;;3.90;;
16177;SDS011;8195;51.220;9.746;2024-02-21T19:23:53;4.53;;;3.40;;
16177;SDS011;8195;51.220;9.746;2024-02-21T19:28:13;3.77;;;3.10;;
16177;SDS011;8195;51.220;9.746;2024-02-21T19:32:33;5.20;;;3.20;;
16177;SDS011;8195;51.220;9.746;2024-02-21T19:36:54;4.10;;;3.13;;
16177;SDS011;8195;51.220;9.746;2024-02-21T19:41:17;6.37;;;4.00;;
16177;SDS011;8195;51.220;9.746;2024-02-21T19:45:38;5.70;;;3.50;;
16177;SDS011;8195;51.220;9.746;2024-02-21T19:49:58;5.57;;;3.23;;
16177;SDS011;8195;51.220;9.746;2024-02-21T19:54:18;4.17;;;3.40;;
16177;SDS011;8195;51.220;9.746;2024-02-21T19:58:39;3.73;;;2.90;;
16177;SDS011;8195;51.220;9.746;2024-02-21T20:02:59;4.37;;;3.87;;
16177;SDS011;8195;51.220;9.746;2024-02-21T20:07:20;3.63;;;3.30;;
16177;SDS011;8195;51.220;9.746;2024-02-21T20:11:40;4.20;;;3.03;;
16177;SDS011;8195;51.220;9.746;2024-02-21T20:16:00;4.17;;;3.00;;
16177;SDS011;8195;51.220;9.746;2024-02-21T20:20:21;7.30;;;3.27;;
16177;SDS011;8195;51.220;9.746;2024-02-21T20:24:41;4.03;;;2.90;;
16177;SDS011;8195;51.220;9.746;2024-02-21T20:29:02;6.20;;;3.23;;
16177;SDS011;8195;51.220;9.746;2024-02-21T20:33:22;4.40;;;3.10;;
16177;SDS011;8195;51.220;9.746;2024-02-21T20:37:42;5.83;;;3.30;;
16177;SDS011;8195;51.220;9.746;2024-02-21T20:42:03;5.40;;;3.33;;
16177;SDS011;8195;51.220;9.746;2024-02-21T20:46:23;3.83;;;2.83;;
16177;SDS011;8195;51.220;9.746;2024-02-21T20:50:44;4.73;;;2.97;;
16177;SDS011;8195;51.220;9.746;2024-02-21T20:55:04;3.40;;;2.60;;
16177;SDS011;8195;51.220;9.746;2024-02-21T20:59:25;3.40;;;3.10;;
16177;SDS011;8195;51.220;9.746;2024-02-21T21:03:46;3.37;;;3.00;;
16177;SDS011;8195;51.220;9.746;2024-02-21T21:08:06;3.67;;;3.33;;
16177;SDS011;8195;51.220;9.746;2024-02-21T21:17:08;3.57;;;2.83;;
16177;SDS011;8195;51.220;9.746;2024-02-21T21:21:29;4.80;;;3.00;;
16177;SDS011;8195;51.220;9.746;2024-02-21T21:25:52;3.70;;;2.93;;
16177;SDS011;8195;51.220;9.746;2024-02-21T21:30:15;3.20;;;2.90;;
16177;SDS011;8195;51.220;9.746;2024-02-21T21:34:36;4.50;;;2.80;;
16177;SDS011;8195;51.220;9.746;2024-02-21T21:38:56;5.83;;;3.17;;
16177;SDS011;8195;51.220;9.746;2024-02-21T21:43:16;3.37;;;2.33;;
16177;SDS011;8195;51.220;9.746;2024-02-21T21:47:37;4.73;;;2.17;;
16177;SDS011;8195;51.220;9.746;2024-02-21T21:51:57;4.07;;;2.73;;
16177;SDS011;8195;51.220;9.746;2024-02-21T21:56:17;4.27;;;2.80;;
16177;SDS011;8195;51.220;9.746;2024-02-21T22:00:37;4.50;;;2.87;;
16177;SDS011;8195;51.220;9.746;2024-02-21T22:04:58;3.50;;;2.30;;
16177;SDS011;8195;51.220;9.746;2024-02-21T22:09:18;2.97;;;2.30;;
16177;SDS011;8195;51.220;9.746;2024-02-21T22:13:39;4.77;;;2.40;;
16177;SDS011;8195;51.220;9.746;2024-02-21T22:17:59;4.47;;;3.00;;
16177;SDS011;8195;51.220;9.746;2024-02-21T22:22:20;3.23;;;2.27;;
16177;SDS011;8195;51.220;9.746;2024-02-21T22:26:40;3.73;;;2.77;;
16177;SDS011;8195;51.220;9.746;2024-02-21T22:31:00;3.03;;;2.70;;
16177;SDS011;8195;51.220;9.746;2024-02-21T22:35:21;3.93;;;2.60;;
16177;SDS011;8195;51.220;9.746;2024-02-21T22:39:41;2.70;;;2.50;;
16177;SDS011;8195;51.220;9.746;2024-02-21T22:44:02;3.57;;;2.60;;
16177;SDS011;8195;51.220;9.746;2024-02-21T22:48:22;2.93;;;2.73;;
16177;SDS011;8195;51.220;9.746;2024-02-21T22:52:43;3.57;;;2.70;;
16177;SDS011;8195;51.220;9.746;2024-02-21T22:57:03;3.23;;;2.60;;
16177;SDS011;8195;51.220;9.746;2024-02-21T23:01:24;3.13;;;2.83;;
16177;SDS011;8195;51.220;9.746;2024-02-21T23:05:44;3.97;;;3.10;;
16177;SDS011;8195;51.220;9.746;2024-02-21T23:10:05;3.30;;;3.00;;
16177;SDS011;8195;51.220;9.746;2024-02-21T23:14:25;3.03;;;2.73;;
16177;SDS011;8195;51.220;9.746;2024-02-21T23:18:45;5.17;;;3.50;;
16177;SDS011;8195;51.220;9.746;2024-02-21T23:23:06;3.60;;;3.30;;
16177;SDS011;8195;51.220;9.746;2024-02-21T23:27:26;3.53;;;3.23;;
16177;SDS011;8195;51.220;9.746;2024-02-21T23:31:46;3.83;;;3.40;;
16177;SDS011;8195;51.220;9.746;2024-02-21T23:36:07;3.87;;;3.57;;
16177;SDS011;8195;51.220;9.746;2024-02-21T23:40:27;4.23;;;3.83;;
16177;SDS011;8195;51.220;9.746;2024-02-21T23:44:47;3.60;;;3.30;;
16177;SDS011;8195;51.220;9.746;2024-02-21T23:49:08;4.20;;;3.50;;
16177;SDS011;8195;51.220;9.746;2024-02-21T23:53:28;4.13;;;3.73;;
16177;SDS011;8195;51.220;9.746;2024-02-21T23:57:48;4.30;;;3.73;;
